usa flag      colorado flag

Language: 

TigerDenWX History Data from Weather Underground


TigerDenWX Weather Station Historical Data
 
Daily Summary for November 12, 2019 Units:  English    Metric   Both
Daily Weekly Monthly Yearly Custom
  Current: High: Low: Average:
Temperature: 44.7 °F 65.7 °F 23.5 °F 41.2 °F
Dew Point: 12.7 °F 23.6 °F -3.7 °F 14.9 °F
Humidity: 27% 77% 6% 45%
Wind Speed: 0mph 6mph 0mph 1.5mph
Wind Gust: 0mph 9mph - -
WindCalm - - South
Pressure: 30.07 in 30.67 in 30.07 in -
Precipitation: 0 in      
Historical Graphs
 
 
Tabular Data for November 12, 2019
Time Temperature Dew Point Pressure Wind Wind Speed Wind Gust Humidity Rainfall Rate (Hourly) solar
00:00 23.5 °F 17.3 °F 30.67 in SSE 2 mph 4 mph 77% 0 in 0.00 W/m2
00:15 23.6 °F 17.4 °F 30.66 in SSW 3 mph 7 mph 77% 0 in 0.00 W/m2
00:30 23.7 °F 17.5 °F 30.66 in SE 3 mph 5 mph 77% 0 in 0.00 W/m2
00:45 23.7 °F 17.2 °F 30.66 in Calm   7 mph 76% 0 in 0.00 W/m2
01:00 23.6 °F 17.4 °F 30.65 in Calm   5 mph 77% 0 in 0.00 W/m2
01:15 23.7 °F 17.5 °F 30.64 in SSE 3 mph 9 mph 77% 0 in 0.00 W/m2
01:30 23.9 °F 17.7 °F 30.63 in Calm   7 mph 77% 0 in 0.00 W/m2
01:45 24.2 °F 17.7 °F 30.63 in SSE 1 mph 8 mph 76% 0 in 0.00 W/m2
02:00 24.4 °F 17.9 °F 30.62 in South 2 mph 5 mph 76% 0 in 0.00 W/m2
02:15 24.8 °F 18 °F 30.62 in SSE 2 mph 6 mph 75% 0 in 0.00 W/m2
02:30 25.2 °F 18.1 °F 30.62 in Calm   6 mph 74% 0 in 0.00 W/m2
02:45 25.1 °F 17.7 °F 30.61 in Calm   7 mph 73% 0 in 0.00 W/m2
03:00 24.9 °F 17.5 °F 30.60 in SSW 2 mph 7 mph 73% 0 in 0.00 W/m2
03:15 24.7 °F 17.3 °F 30.60 in SSE 3 mph 6 mph 73% 0 in 0.00 W/m2
03:30 24.5 °F 17.1 °F 30.58 in SSE 1 mph 4 mph 73% 0 in 0.00 W/m2
03:45 24.4 °F 17.3 °F 30.57 in Calm   3 mph 74% 0 in 0.00 W/m2
04:00 24.8 °F 17.4 °F 30.56 in SSE 2 mph 4 mph 73% 0 in 0.00 W/m2
04:15 25.3 °F 17.5 °F 30.54 in SSW 3 mph 6 mph 72% 0 in 0.00 W/m2
04:30 25.7 °F 17.6 °F 30.54 in SSE 2 mph 6 mph 71% 0 in 0.00 W/m2
04:45 26 °F 17.2 °F 30.53 in South 2 mph 5 mph 69% 0 in 0.00 W/m2
05:00 26 °F 16.9 °F 30.52 in Calm   5 mph 68% 0 in 0.00 W/m2
05:15 26 °F 16.5 °F 30.51 in Calm   6 mph 67% 0 in 0.00 W/m2
05:30 26 °F 16.2 °F 30.51 in SSE 4 mph 4 mph 66% 0 in 0.00 W/m2
05:45 25.9 °F 15.7 °F 30.50 in SSE 3 mph 6 mph 65% 0 in 0.00 W/m2
06:00 26.2 °F 15.7 °F 30.50 in Calm   6 mph 64% 0 in 0.00 W/m2
06:15 26.4 °F 15.5 °F 30.50 in Calm   4 mph 63% 0 in 0.00 W/m2
06:30 26.6 °F 15.7 °F 30.49 in South 2 mph 5 mph 63% 0 in 0.00 W/m2
06:45 26.9 °F 15.6 °F 30.49 in SE 1 mph 6 mph 62% 0 in 7.00 W/m2
07:00 26.8 °F 15.9 °F 30.49 in SSE 3 mph 5 mph 63% 0 in 14.00 W/m2
07:15 27.6 °F 16.6 °F 30.48 in SSE 4 mph 7 mph 63% 0 in 19.00 W/m2
07:30 28.7 °F 16.9 °F 30.47 in South 2 mph 7 mph 61% 0 in 25.00 W/m2
07:45 30.5 °F 17.9 °F 30.47 in South 1 mph 8 mph 59% 0 in 158.00 W/m2
08:00 32.9 °F 18.9 °F 30.47 in SW 4 mph 9 mph 56% 0 in 223.00 W/m2
08:15 34.7 °F 19.3 °F 30.47 in South 3 mph 6 mph 53% 0 in 276.00 W/m2
08:30 36.2 °F 19.8 °F 30.46 in Calm   5 mph 51% 0 in 311.00 W/m2
08:45 38.5 °F 19.5 °F 30.45 in Calm   5 mph 46% 0 in 362.00 W/m2
09:00 40.9 °F 20.6 °F 30.44 in SE 6 mph 8 mph 44% 0 in 397.00 W/m2
09:15 42.9 °F 20.8 °F 30.43 in Calm   7 mph 41% 0 in 434.00 W/m2
09:30 44.5 °F 20.4 °F 30.42 in SSE 1 mph 7 mph 38% 0 in 469.00 W/m2
09:45 46.1 °F 21.9 °F 30.41 in Calm   6 mph 38% 0 in 501.00 W/m2
10:00 47.9 °F 22.2 °F 30.39 in Calm   6 mph 36% 0 in 508.00 W/m2
10:15 49.5 °F 22.3 °F 30.37 in SSE 3 mph 6 mph 34% 0 in 221.00 W/m2
10:30 50.2 °F 22.9 °F 30.36 in Calm   9 mph 34% 0 in 274.00 W/m2
10:45 51.4 °F 23.2 °F 30.35 in South 2 mph 7 mph 33% 0 in 274.00 W/m2
11:00 52.7 °F 23.5 °F 30.33 in Calm   6 mph 32% 0 in 411.00 W/m2
11:15 54.4 °F 22.8 °F 30.32 in SSE 2 mph 6 mph 29% 0 in 339.00 W/m2
11:30 56.3 °F 23.6 °F 30.30 in SSE 2 mph 6 mph 28% 0 in 334.00 W/m2
11:45 58 °F 21.4 °F 30.28 in SSE 3 mph 7 mph 24% 0 in 538.00 W/m2
12:00 58.7 °F 18.8 °F 30.27 in SE 4 mph 9 mph 21% 0 in 146.00 W/m2
12:15 59.6 °F 16 °F 30.25 in ESE 4 mph 8 mph 18% 0 in 181.00 W/m2
12:30 60.7 °F 14.2 °F 30.23 in SSE 2 mph 8 mph 16% 0 in 575.00 W/m2
12:45 61.1 °F 11.5 °F 30.22 in Calm   7 mph 14% 0 in 46.00 W/m2
13:00 62 °F 12.2 °F 30.22 in South 2 mph 5 mph 14% 0 in 545.00 W/m2
13:15 63.8 °F 8.2 °F 30.20 in Calm   4 mph 11% 0 in 524.00 W/m2
13:30 64.7 °F 8.9 °F 30.18 in South 2 mph 4 mph 11% 0 in 496.00 W/m2
13:45 65.1 °F 9.2 °F 30.18 in Calm   5 mph 11% 0 in 469.00 W/m2
14:00 65.5 °F 5.1 °F 30.17 in Calm   5 mph 9% 0 in 429.00 W/m2
14:15 65.7 °F 2.7 °F 30.16 in WSW 5 mph 5 mph 8% 0 in 397.00 W/m2
14:30 65.3 °F -3.7 °F 30.15 in NNW 1 mph 4 mph 6% 0 in 318.00 W/m2
14:45 64.8 °F -0.9 °F 30.15 in WSW 5 mph 8 mph 7% 0 in 308.00 W/m2
15:00 65 °F -0.7 °F 30.14 in Calm   4 mph 7% 0 in 232.00 W/m2
15:15 63.7 °F 1.2 °F 30.13 in WNW 1 mph 4 mph 8% 0 in 90.00 W/m2
15:30 62.7 °F 2.9 °F 30.12 in Calm   2 mph 9% 0 in 84.00 W/m2
15:45 62 °F -0.1 °F 30.11 in Calm   2 mph 8% 0 in 39.00 W/m2
16:00 60.7 °F 5.8 °F 30.10 in Calm     11% 0 in 33.00 W/m2
16:15 58.2 °F 7.5 °F 30.09 in Calm   3 mph 13% 0 in 19.00 W/m2
16:30 55.3 °F 6.8 °F 30.08 in Calm     14% 0 in 12.00 W/m2
16:45 52.1 °F 8.5 °F 30.07 in Calm     17% 0 in 5.00 W/m2
17:00 49.1 °F 9.7 °F 30.07 in Calm     20% 0 in 0.00 W/m2
17:15 46.8 °F 11.8 °F 30.07 in Calm     24% 0 in 0.00 W/m2
17:30 44.7 °F 12.7 °F 30.07 in Calm     27% 0 in 0.00 W/m2
SE Aurora, Colorado Weather
Compliments of Weather Underground - 2 mb
top